Nissos Mykonos — SYJZ — position and weather

sailwx.info

Track history (hours):
 
Tides and Currents Weather Stations Pressure Air Temp Water Temp Dewpoint Dewpoint Depression Visibility Wind Speed Wind Dir Waves Ship Positions

Nissos Mykonos

Last reported at 2017-Aug-18 03:00 UTC. Time now 2017-Aug-18 03:07 UTC.
Position N 37°57' E 023°38'.

Length 141 m; draft 5.2 m.

Type: Passenger vessel. MMSI: 240389000.

Date/timePositionNaut miles runAvg speedWind from/ knotsBaromVisibWave heightAir tempDewpointWater temp
2017-Aug-18 03:00N 37°57' E 023°38'0 0.0
2017-Aug-18 02:30N 37°57' E 023°38'0 0.0
2017-Aug-18 02:00N 37°57' E 023°38'0 0.0
2017-Aug-18 01:30N 37°57' E 023°38'0 0.0
2017-Aug-18 01:00N 37°57' E 023°38'0 0.0
2017-Aug-18 00:30N 37°57' E 023°38'0 0.0
2017-Aug-18 00:00N 37°57' E 023°38'0 0.0
2017-Aug-17 23:30N 37°57' E 023°38'0 0.0
2017-Aug-17 23:00N 37°57' E 023°38'0 0.0
2017-Aug-17 22:30N 37°57' E 023°38'611.4
2017-Aug-17 22:00N 37°51' E 023°40'1223.7
2017-Aug-17 21:30N 37°41' E 023°47'4623.8
2017-Aug-17 19:34N 37°31' E 024°44'225.0
2017-Aug-17 19:31N 37°31' E 024°46'1020.8
2017-Aug-17 19:00N 37°27' E 024°58'1 2.1
2017-Aug-17 18:31N 37°27' E 024°59'1224.9
2017-Aug-17 18:01N 37°27' E 025°15'3 5.9
2017-Aug-17 17:31N 37°29' E 025°18'1122.7
2017-Aug-17 17:01N 37°32' E 025°31'1324.1
2017-Aug-17 16:27N 37°35' E 025°48'9 1.5
2017-Aug-17 10:22N 37°35' E 025°36'923.6
2017-Aug-17 10:00N 37°32' E 025°26'713.8
2017-Aug-17 09:30N 37°28' E 025°19'611.6
2017-Aug-17 09:01N 37°27' E 025°12'1224.0
2017-Aug-17 08:31N 37°26' E 024°57'3 5.3
2017-Aug-17 08:01N 37°29' E 024°57'5223.6
2017-Aug-17 05:49N 37°37' E 023°53'824.6
2017-Aug-17 05:31N 37°40' E 023°44'1224.2
2017-Aug-17 05:01N 37°51' E 023°37'611.4
2017-Aug-17 04:30N 37°57' E 023°38'0 0.0
2017-Aug-17 04:00N 37°57' E 023°38'0 0.0
2017-Aug-17 03:30N 37°57' E 023°38'0 0.0
2017-Aug-17 03:00N 37°57' E 023°38'3 5.2
2017-Aug-17 02:30N 37°54' E 023°38'1223.2
2017-Aug-17 02:01N 37°44' E 023°44'4923.0
2017-Aug-16 23:53N 37°31' E 024°44'924.6
2017-Aug-16 23:30N 37°31' E 024°56'1224.1
2017-Aug-16 23:01N 37°31' E 025°11'1224.3
2017-Aug-16 22:31N 37°33' E 025°26'1224.1
2017-Aug-16 22:00N 37°35' E 025°41'16011.6
2017-Aug-16 08:08N 40°11' E 024°50'924.2
2017-Aug-16 07:46N 40°18' E 024°45'624.0
2017-Aug-16 07:30N 40°24' E 024°41'1224.5
2017-Aug-16 07:00N 40°34' E 024°33'1224.4
2017-Aug-16 06:30N 40°46' E 024°27'1019.8
2017-Aug-16 06:00N 40°56' E 024°25'0 0.0
2017-Aug-16 05:30N 40°56' E 024°25'0 0.0
2017-Aug-16 05:00N 40°56' E 024°25'0 0.0
2017-Aug-16 04:30N 40°56' E 024°25'0 0.0
2017-Aug-16 04:00N 40°56' E 024°25'0 0.0
2017-Aug-16 03:30N 40°56' E 024°25'612.4
2017-Aug-16 03:01N 40°50' E 024°26'1224.3
2017-Aug-16 02:31N 40°38' E 024°30'1224.4
2017-Aug-16 02:00N 40°27' E 024°36'18011.3
2017-Aug-15 10:05N 37°33' E 025°35'223.9
2017-Aug-15 10:00N 37°33' E 025°33'1223.5
2017-Aug-15 09:29N 37°29' E 025°18'3 6.8
2017-Aug-15 09:00N 37°27' E 025°15'1223.8
2017-Aug-15 08:31N 37°26' E 025°00'2 4.9
2017-Aug-15 08:00N 37°27' E 024°57'1121.4
2017-Aug-15 07:31N 37°32' E 024°45'4423.6
2017-Aug-15 05:38N 37°38' E 023°50'424.4
2017-Aug-15 05:28N 37°40' E 023°45'1123.8
2017-Aug-15 05:01N 37°49' E 023°38'815.2
2017-Aug-15 04:30N 37°57' E 023°38'0 0.0
2017-Aug-15 04:00N 37°57' E 023°38'0 0.0
2017-Aug-15 03:30N 37°57' E 023°38'0 0.0
2017-Aug-15 03:00N 37°57' E 023°38'0 0.0
2017-Aug-15 02:30N 37°57' E 023°38'0 0.0
2017-Aug-15 02:00N 37°57' E 023°38'0 0.0
2017-Aug-15 01:30N 37°57' E 023°38'0 0.0
2017-Aug-15 01:00N 37°57' E 023°38'0 0.0
2017-Aug-15 00:30N 37°57' E 023°38'0 0.0
2017-Aug-15 00:00N 37°57' E 023°38'0 0.0
2017-Aug-14 23:30N 37°57' E 023°38'0 0.0
2017-Aug-14 23:00N 37°57' E 023°38'0 0.0
2017-Aug-14 22:30N 37°57' E 023°38'0 0.0
2017-Aug-14 22:00N 37°57' E 023°38'612.8
2017-Aug-14 21:31N 37°50' E 023°40'1223.3
2017-Aug-14 21:01N 37°41' E 023°48'4524.0
2017-Aug-14 19:07N 37°31' E 024°44'324.9
2017-Aug-14 19:01N 37°31' E 024°47'916.3
2017-Aug-14 18:28N 37°26' E 024°57'612.0
2017-Aug-14 17:59N 37°29' E 025°03'613.6
2017-Aug-14 17:31N 37°30' E 025°11'713.8
2017-Aug-14 17:01N 37°28' E 025°19'917.4
2017-Aug-14 16:30N 37°32' E 025°29'1223.5
2017-Aug-14 16:00N 37°35' E 025°43'6 1.0
2017-Aug-14 10:06N 37°33' E 025°36'223.8
2017-Aug-14 10:01N 37°33' E 025°34'1324.0
2017-Aug-14 09:29N 37°30' E 025°18'3 7.0
2017-Aug-14 09:01N 37°27' E 025°16'1224.2
2017-Aug-14 08:31N 37°26' E 025°01'3 5.6
2017-Aug-14 08:01N 37°27' E 024°57'1020.8
2017-Aug-14 07:31N 37°32' E 024°46'4324.0
2017-Aug-14 05:42N 37°37' E 023°51'524.5
2017-Aug-14 05:31N 37°39' E 023°46'1223.6
2017-Aug-14 05:01N 37°49' E 023°38'815.2
2017-Aug-14 04:30N 37°57' E 023°38'0 0.0
2017-Aug-14 04:00N 37°57' E 023°38'0 0.0
2017-Aug-14 03:30N 37°57' E 023°38'0 0.0
2017-Aug-14 03:00N 37°57' E 023°38'0 0.0
2017-Aug-14 02:30N 37°57' E 023°38'0 0.0
2017-Aug-14 02:00N 37°57' E 023°38'0 0.0
2017-Aug-14 01:30N 37°57' E 023°38'0 0.0
2017-Aug-14 01:00N 37°57' E 023°38'0 0.0
2017-Aug-14 00:30N 37°57' E 023°38'0 0.0
2017-Aug-14 00:00N 37°57' E 023°38'0 0.0
2017-Aug-13 23:30N 37°57' E 023°38'0 0.0
2017-Aug-13 23:00N 37°57' E 023°38'0 0.0
2017-Aug-13 22:30N 37°57' E 023°38'0 0.0
2017-Aug-13 22:00N 37°57' E 023°38'0 0.8
2017-Aug-13 21:30N 37°56' E 023°38'917.7
2017-Aug-13 21:01N 37°48' E 023°41'5222.9
2017-Aug-13 18:44N 37°31' E 024°44'524.7
2017-Aug-13 18:31N 37°31' E 024°51'7 9.9
2017-Aug-13 17:47N 37°26' E 024°57'723.9
2017-Aug-13 17:31N 37°27' E 025°05'1122.4
2017-Aug-13 17:01N 37°28' E 025°19'611.5
2017-Aug-13 16:31N 37°31' E 025°25'1224.4
2017-Aug-13 16:00N 37°34' E 025°41'2 0.4
2017-Aug-13 09:59N 37°34' E 025°38'1624.8
2017-Aug-13 09:21N 37°30' E 025°18'2 7.3
2017-Aug-13 09:00N 37°27' E 025°19'1223.8
2017-Aug-13 08:30N 37°27' E 025°04'612.2
2017-Aug-13 08:00N 37°26' E 024°56'917.5
2017-Aug-13 07:31N 37°31' E 024°48'4224.7
2017-Aug-13 05:48N 37°36' E 023°55'724.9
2017-Aug-13 05:31N 37°39' E 023°46'1224.0
2017-Aug-13 05:01N 37°49' E 023°38'815.7
2017-Aug-13 04:31N 37°57' E 023°38'0 0.0
2017-Aug-13 04:00N 37°57' E 023°38'0 0.0
2017-Aug-13 03:30N 37°57' E 023°38'0 0.0
2017-Aug-13 03:01N 37°57' E 023°38'0 0.0
2017-Aug-13 02:31N 37°57' E 023°38'0 0.0
2017-Aug-13 02:00N 37°57' E 023°38'0 0.0
2017-Aug-13 01:30N 37°57' E 023°38'0 0.0
2017-Aug-13 01:01N 37°57' E 023°38'0 0.0
2017-Aug-13 00:30N 37°57' E 023°38'0 0.0
2017-Aug-13 00:01N 37°57' E 023°38'0 0.0
2017-Aug-12 23:31N 37°57' E 023°38'0 0.0
2017-Aug-12 23:00N 37°57' E 023°38'0 0.0
2017-Aug-12 22:30N 37°57' E 023°38'0 0.0
2017-Aug-12 22:01N 37°57' E 023°38'3 6.4
2017-Aug-12 21:30N 37°53' E 023°38'1223.7
2017-Aug-12 21:01N 37°43' E 023°44'4823.8
2017-Aug-12 18:59N 37°31' E 024°44'1122.7
2017-Aug-12 18:29N 37°28' E 024°57'2 4.3
2017-Aug-12 17:57N 37°26' E 024°57'1124.9
2017-Aug-12 17:31N 37°27' E 025°11'612.7
2017-Aug-12 17:00N 37°28' E 025°19'1020.2
2017-Aug-12 16:31N 37°32' E 025°31'1224.8
2017-Aug-12 16:00N 37°35' E 025°46'8 1.3
2017-Aug-12 09:58N 37°34' E 025°36'1524.4
2017-Aug-12 09:23N 37°30' E 025°18'2 5.6
2017-Aug-12 09:00N 37°27' E 025°18'1424.3
2017-Aug-12 08:25N 37°26' E 025°00'3 7.0
2017-Aug-12 07:59N 37°26' E 024°57'918.0
2017-Aug-12 07:31N 37°31' E 024°48'4124.3
2017-Aug-12 05:49N 37°37' E 023°57'824.5
2017-Aug-12 05:30N 37°40' E 023°47'1223.6
2017-Aug-12 05:01N 37°48' E 023°38'816.4
2017-Aug-12 04:30N 37°57' E 023°38'0 0.0
2017-Aug-12 04:00N 37°57' E 023°38'0 0.0
2017-Aug-12 03:30N 37°57' E 023°38'0 0.0
2017-Aug-12 03:00N 37°57' E 023°38'0 0.0
2017-Aug-12 02:30N 37°57' E 023°38'0 0.0
2017-Aug-12 02:00N 37°57' E 023°38'0 0.0
2017-Aug-12 01:31N 37°57' E 023°38'0 0.0
2017-Aug-12 01:00N 37°57' E 023°38'0 0.0
2017-Aug-12 00:30N 37°57' E 023°38'0 0.0
2017-Aug-12 00:00N 37°57' E 023°38'0 0.0
2017-Aug-11 23:30N 37°57' E 023°38'0 0.0
2017-Aug-11 23:00N 37°57' E 023°38'0 0.0
2017-Aug-11 22:30N 37°57' E 023°38'2 4.7
2017-Aug-11 22:00N 37°54' E 023°38'1122.9
2017-Aug-11 21:31N 37°44' E 023°44'4923.9
2017-Aug-11 19:27N 37°31' E 024°44'1023.6
2017-Aug-11 19:01N 37°30' E 024°57'4 5.9
2017-Aug-11 18:24N 37°26' E 024°57'1024.6
2017-Aug-11 18:01N 37°27' E 025°09'816.1
2017-Aug-11 17:31N 37°28' E 025°19'816.7
2017-Aug-11 17:01N 37°32' E 025°28'1224.3
2017-Aug-11 16:30N 37°35' E 025°43'4 0.6
2017-Aug-11 10:14N 37°34' E 025°38'524.1
2017-Aug-11 10:01N 37°33' E 025°32'1122.9
2017-Aug-11 09:30N 37°29' E 025°18'2 3.2
2017-Aug-11 09:01N 37°27' E 025°18'1323.9
2017-Aug-11 08:27N 37°27' E 025°01'3 5.7
2017-Aug-11 07:58N 37°26' E 024°57'920.0
2017-Aug-11 07:31N 37°31' E 024°47'4524.3
2017-Aug-11 05:38N 37°38' E 023°50'324.3
2017-Aug-11 05:30N 37°39' E 023°46'1224.1
2017-Aug-11 05:01N 37°49' E 023°38'816.3
2017-Aug-11 04:31N 37°57' E 023°38'0 0.0
2017-Aug-11 04:00N 37°57' E 023°38'0 0.0
2017-Aug-11 03:31N 37°57' E 023°38'0 0.0
2017-Aug-11 03:00N 37°57' E 023°38'0 0.0
2017-Aug-11 02:31N 37°57' E 023°38'0 0.0
2017-Aug-11 02:01N 37°57' E 023°38'0 0.0
2017-Aug-11 01:30N 37°57' E 023°38'0 0.0
2017-Aug-11 01:01N 37°57' E 023°38'0 0.0
2017-Aug-11 00:31N 37°57' E 023°38'0 0.0
2017-Aug-11 00:01N 37°57' E 023°38'0 0.0
2017-Aug-10 23:31N 37°57' E 023°38'0 0.0
2017-Aug-10 23:01N 37°57' E 023°38'0 0.0
2017-Aug-10 22:31N 37°57' E 023°38'0 0.0
2017-Aug-10 22:01N 37°57' E 023°38'0 0.6
2017-Aug-10 21:31N 37°56' E 023°38'816.1
2017-Aug-10 21:01N 37°49' E 023°41'5323.3
2017-Aug-10 18:45N 37°31' E 024°44'625.2
2017-Aug-10 18:31N 37°31' E 024°51'710.3
2017-Aug-10 17:51N 37°26' E 024°57'924.8
2017-Aug-10 17:31N 37°27' E 025°08'918.5
2017-Aug-10 17:00N 37°28' E 025°19'612.2
2017-Aug-10 16:30N 37°32' E 025°25'1224.0
2017-Aug-10 16:01N 37°34' E 025°40'3 0.5
2017-Aug-10 10:12N 37°33' E 025°37'524.2
2017-Aug-10 10:01N 37°32' E 025°31'1121.4
2017-Aug-10 09:30N 37°28' E 025°18'5 9.0
2017-Aug-10 08:58N 37°27' E 025°12'1123.8
2017-Aug-10 08:31N 37°26' E 024°59'2 3.8
2017-Aug-10 08:00N 37°28' E 024°57'1122.0
2017-Aug-10 07:31N 37°31' E 024°44'4224.2
2017-Aug-10 05:45N 37°37' E 023°51'624.8
2017-Aug-10 05:30N 37°40' E 023°44'1224.7
2017-Aug-10 05:01N 37°51' E 023°38'611.4
2017-Aug-10 04:30N 37°57' E 023°38'0 0.0
2017-Aug-10 04:00N 37°57' E 023°38'0 0.0
2017-Aug-10 03:30N 37°57' E 023°38'0 0.0
2017-Aug-10 03:00N 37°57' E 023°38'0 0.0
2017-Aug-10 02:30N 37°57' E 023°38'4 8.6
2017-Aug-10 02:01N 37°52' E 023°39'1224.3
2017-Aug-10 01:31N 37°41' E 023°46'4724.2
2017-Aug-09 23:33N 37°31' E 024°44'125.3
2017-Aug-09 23:31N 37°31' E 024°45'1324.6
2017-Aug-09 22:59N 37°31' E 025°01'1123.7
2017-Aug-09 22:30N 37°32' E 025°16'1223.8
2017-Aug-09 22:01N 37°34' E 025°30'1424.6
2017-Aug-09 21:26N 37°36' E 025°48'15211.8
2017-Aug-09 08:31N 40°03' E 024°56'023.1
2017-Aug-09 08:30N 40°03' E 024°56'1324.4
2017-Aug-09 07:59N 40°14' E 024°48'1224.8
2017-Aug-09 07:30N 40°24' E 024°40'1224.8
2017-Aug-09 07:00N 40°35' E 024°32'1224.3
2017-Aug-09 06:31N 40°47' E 024°27'918.8
2017-Aug-09 06:00N 40°56' E 024°25'0 0.0
2017-Aug-09 05:30N 40°56' E 024°25'0 0.0
2017-Aug-09 04:59N 40°56' E 024°25'0 0.0
2017-Aug-09 04:30N 40°56' E 024°25'0 0.0
2017-Aug-09 04:00N 40°56' E 024°25'0 0.0
2017-Aug-09 03:30N 40°56' E 024°25'612.7
2017-Aug-09 03:01N 40°50' E 024°26'1224.9
2017-Aug-09 02:31N 40°38' E 024°30'1324.7
2017-Aug-09 02:00N 40°26' E 024°37'1324.8
2017-Aug-09 01:27N 40°14' E 024°45'16610.7
2017-Aug-08 10:00N 37°33' E 025°35'1423.8
2017-Aug-08 09:25N 37°29' E 025°18'2 5.1
2017-Aug-08 09:00N 37°27' E 025°18'1424.2
2017-Aug-08 08:26N 37°26' E 025°00'3 5.2
2017-Aug-08 07:55N 37°27' E 024°57'921.6
2017-Aug-08 07:30N 37°31' E 024°47'4224.3
2017-Aug-08 05:46N 37°37' E 023°54'724.6
2017-Aug-08 05:30N 37°39' E 023°46'1224.0
2017-Aug-08 05:01N 37°49' E 023°38'816.0
2017-Aug-08 04:30N 37°57' E 023°38'0 0.0
2017-Aug-08 04:01N 37°57' E 023°38'0 0.0
2017-Aug-08 03:30N 37°57' E 023°38'0 0.0
2017-Aug-08 03:01N 37°57' E 023°38'  
Track history (hours):
 
Tides and Currents Weather Stations Pressure Air Temp Water Temp Dewpoint Dewpoint Depression Visibility Wind Speed Wind Dir Waves Ship Positions

Nissos Mykonos

Last reported at 2017-Aug-18 03:00 UTC. Time now 2017-Aug-18 03:07 UTC.
Position N 37°57' E 023°38'.

Length 141 m; draft 5.2 m.

Type: Passenger vessel. MMSI: 240389000.

Date/timePositionNaut miles runAvg speedWind from/ knotsBaromVisibWave heightAir tempDewpointWater temp
2017-Aug-18 03:00N 37°57' E 023°38'0 0.0
2017-Aug-18 02:30N 37°57' E 023°38'0 0.0
2017-Aug-18 02:00N 37°57' E 023°38'0 0.0
2017-Aug-18 01:30N 37°57' E 023°38'0 0.0
2017-Aug-18 01:00N 37°57' E 023°38'0 0.0
2017-Aug-18 00:30N 37°57' E 023°38'0 0.0
2017-Aug-18 00:00N 37°57' E 023°38'0 0.0
2017-Aug-17 23:30N 37°57' E 023°38'0 0.0
2017-Aug-17 23:00N 37°57' E 023°38'0 0.0
2017-Aug-17 22:30N 37°57' E 023°38'611.4
2017-Aug-17 22:00N 37°51' E 023°40'1223.7
2017-Aug-17 21:30N 37°41' E 023°47'4623.8
2017-Aug-17 19:34N 37°31' E 024°44'225.0
2017-Aug-17 19:31N 37°31' E 024°46'1020.8
2017-Aug-17 19:00N 37°27' E 024°58'1 2.1
2017-Aug-17 18:31N 37°27' E 024°59'1224.9
2017-Aug-17 18:01N 37°27' E 025°15'3 5.9
2017-Aug-17 17:31N 37°29' E 025°18'1122.7
2017-Aug-17 17:01N 37°32' E 025°31'1324.1
2017-Aug-17 16:27N 37°35' E 025°48'9 1.5
2017-Aug-17 10:22N 37°35' E 025°36'923.6
2017-Aug-17 10:00N 37°32' E 025°26'713.8
2017-Aug-17 09:30N 37°28' E 025°19'611.6
2017-Aug-17 09:01N 37°27' E 025°12'1224.0
2017-Aug-17 08:31N 37°26' E 024°57'3 5.3
2017-Aug-17 08:01N 37°29' E 024°57'5223.6
2017-Aug-17 05:49N 37°37' E 023°53'824.6
2017-Aug-17 05:31N 37°40' E 023°44'1224.2
2017-Aug-17 05:01N 37°51' E 023°37'611.4
2017-Aug-17 04:30N 37°57' E 023°38'0 0.0
2017-Aug-17 04:00N 37°57' E 023°38'0 0.0
2017-Aug-17 03:30N 37°57' E 023°38'0 0.0
2017-Aug-17 03:00N 37°57' E 023°38'3 5.2
2017-Aug-17 02:30N 37°54' E 023°38'1223.2
2017-Aug-17 02:01N 37°44' E 023°44'4923.0
2017-Aug-16 23:53N 37°31' E 024°44'924.6
2017-Aug-16 23:30N 37°31' E 024°56'1224.1
2017-Aug-16 23:01N 37°31' E 025°11'1224.3
2017-Aug-16 22:31N 37°33' E 025°26'1224.1
2017-Aug-16 22:00N 37°35' E 025°41'16011.6
2017-Aug-16 08:08N 40°11' E 024°50'924.2
2017-Aug-16 07:46N 40°18' E 024°45'624.0
2017-Aug-16 07:30N 40°24' E 024°41'1224.5
2017-Aug-16 07:00N 40°34' E 024°33'1224.4
2017-Aug-16 06:30N 40°46' E 024°27'1019.8
2017-Aug-16 06:00N 40°56' E 024°25'0 0.0
2017-Aug-16 05:30N 40°56' E 024°25'0 0.0
2017-Aug-16 05:00N 40°56' E 024°25'0 0.0
2017-Aug-16 04:30N 40°56' E 024°25'0 0.0
2017-Aug-16 04:00N 40°56' E 024°25'0 0.0
2017-Aug-16 03:30N 40°56' E 024°25'612.4
2017-Aug-16 03:01N 40°50' E 024°26'1224.3
2017-Aug-16 02:31N 40°38' E 024°30'1224.4
2017-Aug-16 02:00N 40°27' E 024°36'18011.3
2017-Aug-15 10:05N 37°33' E 025°35'223.9
2017-Aug-15 10:00N 37°33' E 025°33'1223.5
2017-Aug-15 09:29N 37°29' E 025°18'3 6.8
2017-Aug-15 09:00N 37°27' E 025°15'1223.8
2017-Aug-15 08:31N 37°26' E 025°00'2 4.9
2017-Aug-15 08:00N 37°27' E 024°57'1121.4
2017-Aug-15 07:31N 37°32' E 024°45'4423.6
2017-Aug-15 05:38N 37°38' E 023°50'424.4
2017-Aug-15 05:28N 37°40' E 023°45'1123.8
2017-Aug-15 05:01N 37°49' E 023°38'815.2
2017-Aug-15 04:30N 37°57' E 023°38'0 0.0
2017-Aug-15 04:00N 37°57' E 023°38'0 0.0
2017-Aug-15 03:30N 37°57' E 023°38'0 0.0
2017-Aug-15 03:00N 37°57' E 023°38'0 0.0
2017-Aug-15 02:30N 37°57' E 023°38'0 0.0
2017-Aug-15 02:00N 37°57' E 023°38'0 0.0
2017-Aug-15 01:30N 37°57' E 023°38'0 0.0
2017-Aug-15 01:00N 37°57' E 023°38'0 0.0
2017-Aug-15 00:30N 37°57' E 023°38'0 0.0
2017-Aug-15 00:00N 37°57' E 023°38'0 0.0
2017-Aug-14 23:30N 37°57' E 023°38'0 0.0
2017-Aug-14 23:00N 37°57' E 023°38'0 0.0
2017-Aug-14 22:30N 37°57' E 023°38'0 0.0
2017-Aug-14 22:00N 37°57' E 023°38'612.8
2017-Aug-14 21:31N 37°50' E 023°40'1223.3
2017-Aug-14 21:01N 37°41' E 023°48'4524.0
2017-Aug-14 19:07N 37°31' E 024°44'324.9
2017-Aug-14 19:01N 37°31' E 024°47'916.3
2017-Aug-14 18:28N 37°26' E 024°57'612.0
2017-Aug-14 17:59N 37°29' E 025°03'613.6
2017-Aug-14 17:31N 37°30' E 025°11'713.8
2017-Aug-14 17:01N 37°28' E 025°19'917.4
2017-Aug-14 16:30N 37°32' E 025°29'1223.5
2017-Aug-14 16:00N 37°35' E 025°43'6 1.0
2017-Aug-14 10:06N 37°33' E 025°36'223.8
2017-Aug-14 10:01N 37°33' E 025°34'1324.0
2017-Aug-14 09:29N 37°30' E 025°18'3 7.0
2017-Aug-14 09:01N 37°27' E 025°16'1224.2
2017-Aug-14 08:31N 37°26' E 025°01'3 5.6
2017-Aug-14 08:01N 37°27' E 024°57'1020.8
2017-Aug-14 07:31N 37°32' E 024°46'4324.0
2017-Aug-14 05:42N 37°37' E 023°51'524.5
2017-Aug-14 05:31N 37°39' E 023°46'1223.6
2017-Aug-14 05:01N 37°49' E 023°38'815.2
2017-Aug-14 04:30N 37°57' E 023°38'0 0.0
2017-Aug-14 04:00N 37°57' E 023°38'0 0.0
2017-Aug-14 03:30N 37°57' E 023°38'0 0.0
2017-Aug-14 03:00N 37°57' E 023°38'0 0.0
2017-Aug-14 02:30N 37°57' E 023°38'0 0.0
2017-Aug-14 02:00N 37°57' E 023°38'0 0.0
2017-Aug-14 01:30N 37°57' E 023°38'0 0.0
2017-Aug-14 01:00N 37°57' E 023°38'0 0.0
2017-Aug-14 00:30N 37°57' E 023°38'0 0.0
2017-Aug-14 00:00N 37°57' E 023°38'0 0.0
2017-Aug-13 23:30N 37°57' E 023°38'0 0.0
2017-Aug-13 23:00N 37°57' E 023°38'0 0.0
2017-Aug-13 22:30N 37°57' E 023°38'0 0.0
2017-Aug-13 22:00N 37°57' E 023°38'0 0.8
2017-Aug-13 21:30N 37°56' E 023°38'917.7
2017-Aug-13 21:01N 37°48' E 023°41'5222.9
2017-Aug-13 18:44N 37°31' E 024°44'524.7
2017-Aug-13 18:31N 37°31' E 024°51'7 9.9
2017-Aug-13 17:47N 37°26' E 024°57'723.9
2017-Aug-13 17:31N 37°27' E 025°05'1122.4
2017-Aug-13 17:01N 37°28' E 025°19'611.5
2017-Aug-13 16:31N 37°31' E 025°25'1224.4
2017-Aug-13 16:00N 37°34' E 025°41'2 0.4
2017-Aug-13 09:59N 37°34' E 025°38'1624.8
2017-Aug-13 09:21N 37°30' E 025°18'2 7.3
2017-Aug-13 09:00N 37°27' E 025°19'1223.8
2017-Aug-13 08:30N 37°27' E 025°04'612.2
2017-Aug-13 08:00N 37°26' E 024°56'917.5
2017-Aug-13 07:31N 37°31' E 024°48'4224.7
2017-Aug-13 05:48N 37°36' E 023°55'724.9
2017-Aug-13 05:31N 37°39' E 023°46'1224.0
2017-Aug-13 05:01N 37°49' E 023°38'815.7
2017-Aug-13 04:31N 37°57' E 023°38'0 0.0
2017-Aug-13 04:00N 37°57' E 023°38'0 0.0
2017-Aug-13 03:30N 37°57' E 023°38'0 0.0
2017-Aug-13 03:01N 37°57' E 023°38'0 0.0
2017-Aug-13 02:31N 37°57' E 023°38'0 0.0
2017-Aug-13 02:00N 37°57' E 023°38'0 0.0
2017-Aug-13 01:30N 37°57' E 023°38'0 0.0
2017-Aug-13 01:01N 37°57' E 023°38'0 0.0
2017-Aug-13 00:30N 37°57' E 023°38'0 0.0
2017-Aug-13 00:01N 37°57' E 023°38'0 0.0
2017-Aug-12 23:31N 37°57' E 023°38'0 0.0
2017-Aug-12 23:00N 37°57' E 023°38'0 0.0
2017-Aug-12 22:30N 37°57' E 023°38'0 0.0
2017-Aug-12 22:01N 37°57' E 023°38'3 6.4
2017-Aug-12 21:30N 37°53' E 023°38'1223.7
2017-Aug-12 21:01N 37°43' E 023°44'4823.8
2017-Aug-12 18:59N 37°31' E 024°44'1122.7
2017-Aug-12 18:29N 37°28' E 024°57'2 4.3
2017-Aug-12 17:57N 37°26' E 024°57'1124.9
2017-Aug-12 17:31N 37°27' E 025°11'612.7
2017-Aug-12 17:00N 37°28' E 025°19'1020.2
2017-Aug-12 16:31N 37°32' E 025°31'1224.8
2017-Aug-12 16:00N 37°35' E 025°46'8 1.3
2017-Aug-12 09:58N 37°34' E 025°36'1524.4
2017-Aug-12 09:23N 37°30' E 025°18'2 5.6
2017-Aug-12 09:00N 37°27' E 025°18'1424.3
2017-Aug-12 08:25N 37°26' E 025°00'3 7.0
2017-Aug-12 07:59N 37°26' E 024°57'918.0
2017-Aug-12 07:31N 37°31' E 024°48'4124.3
2017-Aug-12 05:49N 37°37' E 023°57'824.5
2017-Aug-12 05:30N 37°40' E 023°47'1223.6
2017-Aug-12 05:01N 37°48' E 023°38'816.4
2017-Aug-12 04:30N 37°57' E 023°38'0 0.0
2017-Aug-12 04:00N 37°57' E 023°38'0 0.0
2017-Aug-12 03:30N 37°57' E 023°38'0 0.0
2017-Aug-12 03:00N 37°57' E 023°38'0 0.0
2017-Aug-12 02:30N 37°57' E 023°38'0 0.0
2017-Aug-12 02:00N 37°57' E 023°38'0 0.0
2017-Aug-12 01:31N 37°57' E 023°38'0 0.0
2017-Aug-12 01:00N 37°57' E 023°38'0 0.0
2017-Aug-12 00:30N 37°57' E 023°38'0 0.0
2017-Aug-12 00:00N 37°57' E 023°38'0 0.0
2017-Aug-11 23:30N 37°57' E 023°38'0 0.0
2017-Aug-11 23:00N 37°57' E 023°38'0 0.0
2017-Aug-11 22:30N 37°57' E 023°38'2 4.7
2017-Aug-11 22:00N 37°54' E 023°38'1122.9
2017-Aug-11 21:31N 37°44' E 023°44'4923.9
2017-Aug-11 19:27N 37°31' E 024°44'1023.6
2017-Aug-11 19:01N 37°30' E 024°57'4 5.9
2017-Aug-11 18:24N 37°26' E 024°57'1024.6
2017-Aug-11 18:01N 37°27' E 025°09'816.1
2017-Aug-11 17:31N 37°28' E 025°19'816.7
2017-Aug-11 17:01N 37°32' E 025°28'1224.3
2017-Aug-11 16:30N 37°35' E 025°43'4 0.6
2017-Aug-11 10:14N 37°34' E 025°38'524.1
2017-Aug-11 10:01N 37°33' E 025°32'1122.9
2017-Aug-11 09:30N 37°29' E 025°18'2 3.2
2017-Aug-11 09:01N 37°27' E 025°18'1323.9
2017-Aug-11 08:27N 37°27' E 025°01'3 5.7
2017-Aug-11 07:58N 37°26' E 024°57'920.0
2017-Aug-11 07:31N 37°31' E 024°47'4524.3
2017-Aug-11 05:38N 37°38' E 023°50'324.3
2017-Aug-11 05:30N 37°39' E 023°46'1224.1
2017-Aug-11 05:01N 37°49' E 023°38'816.3
2017-Aug-11 04:31N 37°57' E 023°38'0 0.0
2017-Aug-11 04:00N 37°57' E 023°38'0 0.0
2017-Aug-11 03:31N 37°57' E 023°38'0 0.0
2017-Aug-11 03:00N 37°57' E 023°38'0 0.0
2017-Aug-11 02:31N 37°57' E 023°38'0 0.0
2017-Aug-11 02:01N 37°57' E 023°38'0 0.0
2017-Aug-11 01:30N 37°57' E 023°38'0 0.0
2017-Aug-11 01:01N 37°57' E 023°38'0 0.0
2017-Aug-11 00:31N 37°57' E 023°38'0 0.0
2017-Aug-11 00:01N 37°57' E 023°38'0 0.0
2017-Aug-10 23:31N 37°57' E 023°38'0 0.0
2017-Aug-10 23:01N 37°57' E 023°38'0 0.0
2017-Aug-10 22:31N 37°57' E 023°38'0 0.0
2017-Aug-10 22:01N 37°57' E 023°38'0 0.6
2017-Aug-10 21:31N 37°56' E 023°38'816.1
2017-Aug-10 21:01N 37°49' E 023°41'5323.3
2017-Aug-10 18:45N 37°31' E 024°44'625.2
2017-Aug-10 18:31N 37°31' E 024°51'710.3
2017-Aug-10 17:51N 37°26' E 024°57'924.8
2017-Aug-10 17:31N 37°27' E 025°08'918.5
2017-Aug-10 17:00N 37°28' E 025°19'612.2
2017-Aug-10 16:30N 37°32' E 025°25'1224.0
2017-Aug-10 16:01N 37°34' E 025°40'3 0.5
2017-Aug-10 10:12N 37°33' E 025°37'524.2
2017-Aug-10 10:01N 37°32' E 025°31'1121.4
2017-Aug-10 09:30N 37°28' E 025°18'5 9.0
2017-Aug-10 08:58N 37°27' E 025°12'1123.8
2017-Aug-10 08:31N 37°26' E 024°59'2 3.8
2017-Aug-10 08:00N 37°28' E 024°57'1122.0
2017-Aug-10 07:31N 37°31' E 024°44'4224.2
2017-Aug-10 05:45N 37°37' E 023°51'624.8
2017-Aug-10 05:30N 37°40' E 023°44'1224.7
2017-Aug-10 05:01N 37°51' E 023°38'611.4
2017-Aug-10 04:30N 37°57' E 023°38'0 0.0
2017-Aug-10 04:00N 37°57' E 023°38'0 0.0
2017-Aug-10 03:30N 37°57' E 023°38'0 0.0
2017-Aug-10 03:00N 37°57' E 023°38'0 0.0
2017-Aug-10 02:30N 37°57' E 023°38'4 8.6
2017-Aug-10 02:01N 37°52' E 023°39'1224.3
2017-Aug-10 01:31N 37°41' E 023°46'4724.2
2017-Aug-09 23:33N 37°31' E 024°44'125.3
2017-Aug-09 23:31N 37°31' E 024°45'1324.6
2017-Aug-09 22:59N 37°31' E 025°01'1123.7
2017-Aug-09 22:30N 37°32' E 025°16'1223.8
2017-Aug-09 22:01N 37°34' E 025°30'1424.6
2017-Aug-09 21:26N 37°36' E 025°48'15211.8
2017-Aug-09 08:31N 40°03' E 024°56'023.1
2017-Aug-09 08:30N 40°03' E 024°56'1324.4
2017-Aug-09 07:59N 40°14' E 024°48'1224.8
2017-Aug-09 07:30N 40°24' E 024°40'1224.8
2017-Aug-09 07:00N 40°35' E 024°32'1224.3
2017-Aug-09 06:31N 40°47' E 024°27'918.8
2017-Aug-09 06:00N 40°56' E 024°25'0 0.0
2017-Aug-09 05:30N 40°56' E 024°25'0 0.0
2017-Aug-09 04:59N 40°56' E 024°25'0 0.0
2017-Aug-09 04:30N 40°56' E 024°25'0 0.0
2017-Aug-09 04:00N 40°56' E 024°25'0 0.0
2017-Aug-09 03:30N 40°56' E 024°25'612.7
2017-Aug-09 03:01N 40°50' E 024°26'1224.9
2017-Aug-09 02:31N 40°38' E 024°30'1324.7
2017-Aug-09 02:00N 40°26' E 024°37'1324.8
2017-Aug-09 01:27N 40°14' E 024°45'16610.7
2017-Aug-08 10:00N 37°33' E 025°35'1423.8
2017-Aug-08 09:25N 37°29' E 025°18'2 5.1
2017-Aug-08 09:00N 37°27' E 025°18'1424.2
2017-Aug-08 08:26N 37°26' E 025°00'3 5.2
2017-Aug-08 07:55N 37°27' E 024°57'921.6
2017-Aug-08 07:30N 37°31' E 024°47'4224.3
2017-Aug-08 05:46N 37°37' E 023°54'724.6
2017-Aug-08 05:30N 37°39' E 023°46'1224.0
2017-Aug-08 05:01N 37°49' E 023°38'816.0
2017-Aug-08 04:30N 37°57' E 023°38'0 0.0
2017-Aug-08 04:01N 37°57' E 023°38'0 0.0
2017-Aug-08 03:30N 37°57' E 023°38'0 0.0
2017-Aug-08 03:01N 37°57' E 023°38'  

Dump ship's entire track history